Time;durP1;ratioP1;P1;durP2;ratioP2;P2;SDS_P1;SDS_P2;PMS_P1;PMS_P2;Temp;Humidity;BMP_temperature;BMP_pressure;BME280_temperature;BME280_humidity;BME280_pressure;Samples;Min_cycle;Max_cycle;Signal;HPM_P1;HPM_P2
2021/08/28 00:01:34;;;;;;;5.75;3.90;;;;;;;9.27;62.00;95629.91;5011306;28;20026;-63
2021/08/28 00:04:00;;;;;;;5.68;4.10;;;;;;;9.56;61.77;95633.81;5011468;28;20030;-62
2021/08/28 00:06:25;;;;;;;5.28;4.15;;;;;;;9.39;62.44;95632.22;5008303;28;20038;-63
2021/08/28 00:08:50;;;;;;;6.30;3.97;;;;;;;9.19;62.91;95630.75;5011341;28;20030;-62
2021/08/28 00:11:16;;;;;;;5.15;4.45;;;;;;;9.40;62.06;95623.25;5010832;28;20046;-62
2021/08/28 00:13:43;;;;;;;6.53;4.15;;;;;;;9.43;62.10;95623.75;5011332;28;20485;-62
2021/08/28 00:16:08;;;;;;;7.25;4.03;;;;;;;9.22;61.96;95628.78;5011028;28;20725;-63
2021/08/28 00:18:34;;;;;;;6.40;4.05;;;;;;;9.02;62.72;95626.47;5007439;28;20116;-62
2021/08/28 00:20:59;;;;;;;6.10;4.30;;;;;;;9.10;63.34;95625.63;5010748;28;20096;-62
2021/08/28 00:23:26;;;;;;;7.40;4.78;;;;;;;9.22;63.05;95616.31;5010850;28;20034;-62
2021/08/28 00:25:52;;;;;;;6.28;4.35;;;;;;;9.29;62.99;95619.94;5010624;28;20038;-62
2021/08/28 00:28:17;;;;;;;6.70;4.75;;;;;;;9.06;63.44;95611.88;5010322;28;20068;-62
2021/08/28 00:30:42;;;;;;;6.57;4.57;;;;;;;9.01;63.47;95616.88;5010631;28;20041;-63
2021/08/28 00:33:14;;;;;;;5.72;4.28;;;;;;;9.19;62.93;95614.00;5011684;28;20038;-63
2021/08/28 00:35:40;;;;;;;5.57;4.35;;;;;;;9.07;63.15;95610.84;5007172;28;20038;-63
2021/08/28 00:38:06;;;;;;;6.07;4.20;;;;;;;9.00;63.18;95609.88;5009587;28;20676;-63
2021/08/28 00:40:32;;;;;;;6.30;4.22;;;;;;;9.03;62.80;95607.72;5010839;28;20805;-62
2021/08/28 00:42:57;;;;;;;5.03;4.20;;;;;;;9.14;62.64;95611.00;5009186;28;20420;-62
2021/08/28 00:45:33;;;;;;;5.60;4.20;;;;;;;8.97;63.70;95615.53;5009540;28;20026;-62
2021/08/28 00:48:12;;;;;;;4.93;4.22;;;;;;;9.25;62.99;95620.47;5010816;28;20036;-63
2021/08/28 00:50:38;;;;;;;6.65;4.57;;;;;;;9.11;63.18;95614.03;5002390;28;20062;-62
2021/08/28 00:53:07;;;;;;;6.95;4.53;;;;;;;9.00;63.80;95608.06;5010744;28;20584;-62
2021/08/28 00:55:34;;;;;;;4.00;3.60;;;;;;;8.84;63.32;95608.84;5003894;28;20621;-62
2021/08/28 00:58:00;;;;;;;5.40;4.10;;;;;;;8.86;63.71;95609.53;5024742;28;20084;-62
2021/08/28 01:00:25;;;;;;;7.88;3.97;;;;;;;8.54;64.25;95616.50;5010308;28;20029;-62
2021/08/28 01:02:51;;;;;;;5.28;3.60;;;;;;;8.39;64.97;95614.50;5008567;28;20057;-62
2021/08/28 01:05:28;;;;;;;4.75;4.15;;;;;;;8.65;64.93;95612.69;5010303;28;20030;-62
2021/08/28 01:08:16;;;;;;;6.60;4.50;;;;;;;8.82;64.01;95603.75;5009426;28;20103;-63
2021/08/28 01:10:43;;;;;;;7.43;4.60;;;;;;;9.12;62.80;95602.41;5005597;28;20055;-62
2021/08/28 01:13:12;;;;;;;4.93;3.85;;;;;;;9.17;61.88;95603.53;5010605;28;20068;-62
2021/08/28 01:15:39;;;;;;;5.78;4.20;;;;;;;9.28;61.67;95597.03;5011466;28;20042;-62
2021/08/28 01:18:05;;;;;;;4.82;4.18;;;;;;;9.21;61.40;95601.38;4995311;28;20031;-62
2021/08/28 01:20:37;;;;;;;4.35;3.80;;;;;;;9.25;61.05;95605.34;5008803;28;20391;-62
2021/08/28 01:23:03;;;;;;;4.88;3.70;;;;;;;9.28;60.84;95591.72;5009876;28;20045;-62
2021/08/28 01:25:29;;;;;;;5.38;3.72;;;;;;;9.26;60.93;95591.09;4992419;28;20022;-62
2021/08/28 01:28:05;;;;;;;4.78;3.80;;;;;;;9.28;60.71;95591.72;4992583;28;20052;-62
2021/08/28 01:30:32;;;;;;;4.15;3.55;;;;;;;9.59;60.21;95596.28;5009535;28;20320;-62
2021/08/28 01:32:58;;;;;;;5.43;4.15;;;;;;;9.92;58.67;95599.78;5008925;28;20079;-62
2021/08/28 01:35:23;;;;;;;5.32;3.70;;;;;;;9.97;58.68;95611.53;5008062;28;20041;-62
2021/08/28 01:37:49;;;;;;;6.40;4.07;;;;;;;9.92;59.06;95602.44;5006035;28;20394;-62
2021/08/28 01:40:14;;;;;;;4.97;4.18;;;;;;;9.87;59.60;95604.78;5008715;28;20034;-62
2021/08/28 01:42:40;;;;;;;5.00;4.10;;;;;;;10.13;58.91;95606.34;5007971;28;20038;-63
2021/08/28 01:45:07;;;;;;;6.25;3.63;;;;;;;10.31;58.15;95598.94;5008758;28;20037;-62
2021/08/28 01:47:33;;;;;;;9.25;4.28;;;;;;;10.04;58.45;95608.19;5008023;28;20128;-63
2021/08/28 01:49:58;;;;;;;4.43;3.83;;;;;;;9.71;58.85;95606.53;5007820;28;20718;-62
2021/08/28 01:52:24;;;;;;;8.05;3.80;;;;;;;9.62;59.40;95611.03;5009691;28;20030;-62
2021/08/28 01:54:49;;;;;;;4.40;3.47;;;;;;;9.73;58.98;95607.19;5009297;28;20533;-63
2021/08/28 01:57:15;;;;;;;4.88;3.47;;;;;;;9.30;60.22;95604.84;5009609;28;20037;-62
2021/08/28 01:59:40;;;;;;;5.95;3.70;;;;;;;9.12;60.49;95611.19;5009570;28;20390;-62
2021/08/28 02:02:06;;;;;;;5.10;3.65;;;;;;;9.02;61.28;95608.72;5007804;28;20049;-62
2021/08/28 02:04:33;;;;;;;5.22;3.83;;;;;;;9.17;61.00;95605.34;5009033;28;20030;-62
2021/08/28 02:07:14;;;;;;;4.78;4.10;;;;;;;9.31;60.66;95607.31;5007621;28;20502;-62
2021/08/28 02:09:50;;;;;;;4.90;4.15;;;;;;;9.58;60.43;95599.94;5007611;28;20030;-62
2021/08/28 02:12:22;;;;;;;4.65;4.15;;;;;;;9.64;60.03;95610.88;5008734;28;20072;-62
2021/08/28 02:14:58;;;;;;;6.28;4.13;;;;;;;9.57;60.29;95608.06;5006964;28;20056;-63
2021/08/28 02:17:25;;;;;;;5.38;4.38;;;;;;;9.19;61.00;95611.34;4992154;28;20037;-62
2021/08/28 02:19:50;;;;;;;6.93;4.30;;;;;;;9.27;61.24;95610.47;5006648;28;20055;-62
2021/08/28 02:22:19;;;;;;;6.78;4.80;;;;;;;9.31;61.43;95617.97;4990821;28;20034;-62
2021/08/28 02:24:46;;;;;;;6.28;4.68;;;;;;;9.55;61.19;95620.69;5007221;28;20058;-63
2021/08/28 02:27:17;;;;;;;5.72;4.47;;;;;;;9.43;60.65;95609.63;5008528;28;20133;-62
2021/08/28 02:29:52;;;;;;;6.55;4.45;;;;;;;9.18;61.82;95612.34;5006911;28;20036;-62
2021/08/28 02:32:18;;;;;;;6.00;4.50;;;;;;;9.26;61.00;95608.84;5009006;28;20076;-62
2021/08/28 02:34:43;;;;;;;5.18;4.20;;;;;;;9.21;61.46;95612.00;5008173;28;20037;-63
2021/08/28 02:37:09;;;;;;;7.15;4.40;;;;;;;9.23;61.06;95619.78;5007220;28;20046;-63
2021/08/28 02:39:34;;;;;;;6.47;4.50;;;;;;;9.25;60.83;95610.66;5006137;28;20049;-63
2021/08/28 02:42:00;;;;;;;6.35;4.57;;;;;;;9.33;60.79;95609.81;4990362;28;20367;-62
2021/08/28 02:44:25;;;;;;;6.00;4.40;;;;;;;9.38;60.77;95614.63;5008627;28;20152;-62
2021/08/28 02:46:52;;;;;;;5.85;4.68;;;;;;;9.54;60.85;95611.91;4989610;28;20042;-63
2021/08/28 02:49:17;;;;;;;6.68;4.72;;;;;;;9.55;60.11;95610.06;5008015;28;20034;-62
2021/08/28 02:51:43;;;;;;;7.13;4.50;;;;;;;9.31;61.14;95611.81;4988553;28;20494;-63
2021/08/28 02:54:11;;;;;;;10.50;5.50;;;;;;;9.25;61.51;95617.81;5006594;28;20100;-63
2021/08/28 02:56:36;;;;;;;6.87;4.80;;;;;;;9.09;62.08;95616.84;5008511;28;20036;-63
2021/08/28 02:59:01;;;;;;;5.82;4.75;;;;;;;9.23;61.70;95620.63;5006691;28;20703;-62
2021/08/28 03:01:28;;;;;;;7.25;5.13;;;;;;;9.25;61.72;95613.31;5006282;28;20628;-62
2021/08/28 03:03:53;;;;;;;6.68;4.93;;;;;;;9.61;60.83;95617.38;5007271;28;20087;-63
2021/08/28 03:06:18;;;;;;;7.22;4.50;;;;;;;9.58;59.77;95607.06;5006253;28;20038;-63
2021/08/28 03:08:44;;;;;;;5.40;4.75;;;;;;;9.56;60.24;95609.91;5007106;28;20033;-63
2021/08/28 03:11:09;;;;;;;5.93;4.57;;;;;;;9.47;60.53;95610.94;5007371;28;20042;-62
2021/08/28 03:13:35;;;;;;;5.97;5.00;;;;;;;9.33;60.60;95609.81;4990190;28;20028;-63
2021/08/28 03:16:00;;;;;;;6.88;5.00;;;;;;;9.25;60.67;95608.00;5008088;28;20664;-63
2021/08/28 03:18:26;;;;;;;5.65;5.05;;;;;;;9.49;60.22;95603.63;5006660;28;20038;-63
2021/08/28 03:20:53;;;;;;;6.78;5.15;;;;;;;9.80;59.60;95608.13;5005760;28;20038;-62
2021/08/28 03:23:19;;;;;;;7.90;5.38;;;;;;;9.90;59.15;95612.44;5005894;28;20123;-63
2021/08/28 03:25:45;;;;;;;7.75;5.43;;;;;;;9.69;59.18;95614.66;5007079;28;20652;-62
2021/08/28 03:28:11;;;;;;;6.30;4.80;;;;;;;9.82;59.53;95614.13;5006895;28;20088;-63
2021/08/28 03:30:37;;;;;;;6.10;4.68;;;;;;;9.68;59.31;95612.19;4990116;28;20360;-64
2021/08/28 03:33:02;;;;;;;5.65;4.97;;;;;;;9.39;60.83;95610.97;4989861;28;20033;-63
2021/08/28 03:35:28;;;;;;;6.30;4.72;;;;;;;9.29;61.46;95606.66;5006835;28;20053;-63
2021/08/28 03:37:54;;;;;;;6.30;4.60;;;;;;;9.59;60.38;95611.41;5003340;28;20041;-62
2021/08/28 03:40:19;;;;;;;7.68;5.57;;;;;;;9.53;60.30;95618.25;5007905;28;20427;-62
2021/08/28 03:42:45;;;;;;;5.78;4.65;;;;;;;9.34;61.18;95622.09;5005811;28;20620;-63
2021/08/28 03:45:10;;;;;;;6.28;5.32;;;;;;;9.11;61.31;95611.38;5008148;28;20041;-62
2021/08/28 03:47:40;;;;;;;6.53;5.25;;;;;;;9.15;60.93;95616.16;5006478;28;20034;-62
2021/08/28 03:50:05;;;;;;;7.85;5.40;;;;;;;8.84;62.33;95627.44;4988210;28;20100;-61
2021/08/28 03:52:31;;;;;;;7.45;5.60;;;;;;;8.95;61.92;95618.34;5008124;28;20041;-61
2021/08/28 03:54:56;;;;;;;7.05;5.00;;;;;;;8.50;62.93;95629.25;5007333;28;20057;-62
2021/08/28 03:57:22;;;;;;;8.23;5.35;;;;;;;8.32;63.80;95621.47;5007620;28;20037;-62
2021/08/28 03:59:47;;;;;;;7.78;5.85;;;;;;;8.53;63.77;95623.63;5007616;28;20041;-62
2021/08/28 04:02:12;;;;;;;7.30;5.57;;;;;;;8.70;63.51;95618.31;5007346;28;20038;-62
2021/08/28 04:04:38;;;;;;;6.93;5.63;;;;;;;8.36;63.93;95627.28;5007448;28;20402;-62
2021/08/28 04:07:03;;;;;;;7.85;5.72;;;;;;;8.15;65.04;95617.94;5005277;28;20511;-62
2021/08/28 04:09:29;;;;;;;6.47;5.43;;;;;;;8.17;64.51;95626.56;5006192;28;20113;-61
2021/08/28 04:11:54;;;;;;;7.22;5.40;;;;;;;8.02;65.32;95624.53;5007457;28;20041;-61
2021/08/28 04:14:20;;;;;;;5.97;4.35;;;;;;;7.68;66.30;95627.22;5007050;28;20399;-61
2021/08/28 04:16:45;;;;;;;9.30;5.95;;;;;;;7.98;65.84;95622.38;5007422;28;20049;-62
2021/08/28 04:19:10;;;;;;;6.78;5.20;;;;;;;8.19;65.29;95624.56;5005122;28;20042;-62
2021/08/28 04:21:36;;;;;;;7.50;5.40;;;;;;;8.07;64.83;95621.41;5006740;28;20100;-62
2021/08/28 04:24:01;;;;;;;8.55;5.70;;;;;;;8.14;65.08;95618.94;5006845;28;20026;-62
2021/08/28 04:26:28;;;;;;;6.53;5.03;;;;;;;8.15;64.87;95615.28;5005618;28;20076;-62
2021/08/28 04:28:55;;;;;;;6.95;5.80;;;;;;;8.06;65.35;95609.13;5007903;28;20076;-62
2021/08/28 04:31:21;;;;;;;7.90;5.30;;;;;;;7.98;65.57;95612.59;5007006;28;20045;-62
2021/08/28 04:33:46;;;;;;;7.00;5.22;;;;;;;7.88;66.33;95620.69;5006961;28;20637;-62
2021/08/28 04:36:12;;;;;;;7.40;5.57;;;;;;;7.99;65.92;95611.59;5004023;28;20706;-62
2021/08/28 04:38:37;;;;;;;8.50;5.88;;;;;;;8.32;65.20;95618.00;5009199;28;20041;-62
2021/08/28 04:41:02;;;;;;;5.75;5.15;;;;;;;8.65;63.84;95623.31;5011324;28;20042;-62
2021/08/28 04:43:28;;;;;;;6.82;5.30;;;;;;;8.91;62.94;95617.81;5010338;28;20049;-62
2021/08/28 04:45:53;;;;;;;7.78;5.47;;;;;;;8.88;62.50;95617.34;5011031;28;20042;-63
2021/08/28 04:48:19;;;;;;;7.38;5.70;;;;;;;8.96;62.65;95614.69;5010800;28;20387;-62
2021/08/28 04:50:44;;;;;;;6.20;5.30;;;;;;;8.98;62.75;95617.19;5010270;28;20030;-62
2021/08/28 04:53:10;;;;;;;7.13;5.55;;;;;;;8.95;62.69;95618.34;5010191;28;20430;-62
2021/08/28 04:55:35;;;;;;;7.03;5.30;;;;;;;8.89;63.10;95613.69;5010854;28;20037;-62
2021/08/28 04:58:00;;;;;;;6.47;5.43;;;;;;;8.94;62.80;95619.31;5010041;28;20041;-62
2021/08/28 05:00:26;;;;;;;6.72;5.50;;;;;;;8.90;62.99;95626.78;5010327;28;20052;-63
2021/08/28 05:02:51;;;;;;;5.95;4.80;;;;;;;8.91;62.92;95630.28;5010137;28;20486;-62
2021/08/28 05:05:17;;;;;;;6.28;5.20;;;;;;;9.14;62.13;95626.94;5009990;28;20099;-62
2021/08/28 05:07:42;;;;;;;6.35;5.15;;;;;;;8.90;62.35;95631.25;5010609;28;20487;-63
2021/08/28 05:10:08;;;;;;;6.72;5.50;;;;;;;8.70;63.46;95634.25;5010226;28;20049;-62
2021/08/28 05:12:34;;;;;;;7.43;5.75;;;;;;;8.71;63.38;95633.28;5009094;28;20046;-63
2021/08/28 05:14:59;;;;;;;7.95;6.35;;;;;;;8.73;63.77;95633.09;5009416;28;20570;-62
2021/08/28 05:17:25;;;;;;;8.60;5.88;;;;;;;8.30;64.70;95634.88;5009882;28;20037;-62
2021/08/28 05:19:50;;;;;;;9.38;6.50;;;;;;;8.42;64.99;95634.56;5010370;28;20029;-62
2021/08/28 05:22:15;;;;;;;9.45;6.82;;;;;;;8.34;65.13;95634.56;5009696;28;20045;-62
2021/08/28 05:24:41;;;;;;;10.27;6.65;;;;;;;8.53;64.17;95639.56;5010147;28;20037;-62
2021/08/28 05:27:06;;;;;;;7.15;5.43;;;;;;;8.24;64.95;95638.19;5009550;28;20033;-62
2021/08/28 05:29:32;;;;;;;8.05;5.90;;;;;;;8.15;65.52;95640.00;5010075;28;20034;-62
2021/08/28 05:31:57;;;;;;;9.20;6.25;;;;;;;7.85;66.02;95641.41;5009718;28;20024;-63
2021/08/28 05:34:23;;;;;;;7.90;5.65;;;;;;;7.86;66.54;95632.44;5008261;28;20353;-62
2021/08/28 05:36:48;;;;;;;8.25;5.47;;;;;;;8.03;65.77;95639.44;5005539;28;20490;-62
2021/08/28 05:39:13;;;;;;;7.07;4.82;;;;;;;8.03;65.80;95644.75;5009817;28;20046;-63
2021/08/28 05:41:39;;;;;;;8.02;5.63;;;;;;;8.02;65.99;95644.91;5009402;28;20042;-62
2021/08/28 05:44:04;;;;;;;7.45;4.93;;;;;;;8.41;64.72;95643.53;5009951;28;20045;-63
2021/08/28 05:46:30;;;;;;;7.70;5.40;;;;;;;8.53;63.83;95639.56;5009911;28;20042;-63
2021/08/28 05:48:55;;;;;;;7.30;5.45;;;;;;;9.00;62.50;95626.66;5008964;28;20486;-63
2021/08/28 05:51:21;;;;;;;6.95;4.93;;;;;;;9.25;61.89;95631.91;5008080;28;20072;-62
2021/08/28 05:53:46;;;;;;;6.35;4.90;;;;;;;9.46;60.90;95635.88;5008717;28;20733;-62
2021/08/28 05:56:12;;;;;;;5.45;4.50;;;;;;;10.14;58.52;95623.97;4998546;28;20506;-63
2021/08/28 05:58:37;;;;;;;6.57;4.70;;;;;;;10.41;58.21;95630.63;5005859;28;20395;-63
2021/08/28 06:01:03;;;;;;;4.70;4.20;;;;;;;10.62;57.10;95621.97;5006244;28;20021;-63
2021/08/28 06:03:28;;;;;;;6.15;4.30;;;;;;;10.69;57.28;95626.59;5005636;28;20518;-63
2021/08/28 06:05:54;;;;;;;6.75;4.88;;;;;;;10.90;56.41;95623.25;5004808;28;20034;-62
2021/08/28 06:08:19;;;;;;;7.38;5.07;;;;;;;11.02;55.76;95629.00;5006236;28;20029;-62
2021/08/28 06:10:45;;;;;;;8.82;5.07;;;;;;;11.09;55.63;95624.59;5004870;28;20046;-63
2021/08/28 06:13:10;;;;;;;6.13;4.65;;;;;;;11.16;55.57;95618.56;5006014;28;20030;-63
2021/08/28 06:15:36;;;;;;;6.13;4.63;;;;;;;11.52;54.61;95616.03;5003689;28;20506;-63
2021/08/28 06:18:01;;;;;;;5.50;4.50;;;;;;;11.72;53.93;95612.78;5004927;28;20049;-63
2021/08/28 06:20:27;;;;;;;6.10;4.88;;;;;;;11.94;53.73;95612.03;5005623;28;20966;-62
2021/08/28 06:22:52;;;;;;;7.55;4.88;;;;;;;11.87;53.42;95617.28;5005291;28;20041;-62
2021/08/28 06:25:18;;;;;;;6.15;4.47;;;;;;;11.90;53.00;95617.72;5003974;28;20046;-62
2021/08/28 06:27:43;;;;;;;5.88;4.18;;;;;;;11.89;53.04;95613.41;5005571;28;20048;-62
2021/08/28 06:30:09;;;;;;;5.20;4.00;;;;;;;12.04;53.21;95615.25;5005265;28;20045;-62
2021/08/28 06:32:34;;;;;;;5.80;4.45;;;;;;;12.15;52.45;95625.47;4996514;28;20026;-63
2021/08/28 06:35:00;;;;;;;5.90;4.63;;;;;;;12.11;52.66;95616.16;5002758;28;20037;-63
2021/08/28 06:37:25;;;;;;;6.15;4.85;;;;;;;11.99;53.19;95620.28;5000425;28;20038;-62
2021/08/28 06:39:50;;;;;;;6.10;4.68;;;;;;;12.09;52.76;95618.19;5005570;28;20026;-62
2021/08/28 06:42:16;;;;;;;5.22;4.22;;;;;;;11.98;52.91;95624.81;5004367;28;20664;-63
2021/08/28 06:44:41;;;;;;;5.75;4.57;;;;;;;12.09;52.87;95615.53;5003058;28;20534;-63
2021/08/28 06:47:07;;;;;;;6.45;4.90;;;;;;;11.80;52.91;95614.50;5001329;28;20402;-63
2021/08/28 06:49:32;;;;;;;4.90;4.10;;;;;;;12.18;52.68;95621.59;5001879;28;20368;-62
2021/08/28 06:51:58;;;;;;;6.05;4.70;;;;;;;11.84;53.01;95621.16;5000680;28;20041;-63
2021/08/28 06:54:23;;;;;;;6.15;4.88;;;;;;;11.68;53.73;95610.66;5001676;28;20464;-63
2021/08/28 06:56:48;;;;;;;6.60;5.20;;;;;;;11.74;53.38;95617.94;5001988;28;20029;-63
2021/08/28 06:59:14;;;;;;;7.72;5.40;;;;;;;11.61;53.64;95622.09;5001589;28;20052;-63
2021/08/28 07:01:39;;;;;;;7.32;5.18;;;;;;;11.60;53.96;95627.59;4998596;28;20243;-63
2021/08/28 07:04:05;;;;;;;7.00;5.53;;;;;;;11.54;53.67;95623.84;5001973;28;20476;-63
2021/08/28 07:06:31;;;;;;;7.95;5.30;;;;;;;11.65;53.53;95625.19;5000768;28;20511;-62
2021/08/28 07:08:57;;;;;;;7.05;5.40;;;;;;;12.00;52.63;95629.97;5001919;28;20117;-63
2021/08/28 07:11:22;;;;;;;6.90;5.47;;;;;;;12.15;52.35;95625.47;5000978;28;20085;-63
2021/08/28 07:13:48;;;;;;;7.40;4.80;;;;;;;12.48;51.76;95620.66;5001698;28;20136;-62
2021/08/28 07:16:13;;;;;;;7.30;5.50;;;;;;;12.58;51.33;95620.34;5001527;28;20056;-63
2021/08/28 07:18:38;;;;;;;6.45;5.28;;;;;;;12.75;50.61;95620.91;5000814;28;20052;-63
2021/08/28 07:21:04;;;;;;;6.53;5.10;;;;;;;12.75;50.61;95621.72;5001890;28;20506;-63
2021/08/28 07:23:29;;;;;;;8.40;5.32;;;;;;;12.95;49.91;95609.56;5001006;28;20495;-64
2021/08/28 07:25:55;;;;;;;7.45;5.30;;;;;;;13.15;50.07;95613.25;4999216;28;20041;-63
2021/08/28 07:28:22;;;;;;;7.85;5.43;;;;;;;13.41;48.78;95609.09;5000840;28;20030;-63
2021/08/28 07:30:47;;;;;;;7.40;5.55;;;;;;;13.28;48.68;95609.00;4999147;28;21332;-63
2021/08/28 07:33:13;;;;;;;6.30;4.90;;;;;;;13.16;49.31;95619.44;4999112;28;20270;-63
2021/08/28 07:35:38;;;;;;;6.45;5.00;;;;;;;13.02;49.32;95616.63;4997758;28;20038;-63
2021/08/28 07:38:04;;;;;;;7.70;4.80;;;;;;;12.90;49.50;95621.66;4997376;28;20487;-63
2021/08/28 07:40:29;;;;;;;8.38;4.70;;;;;;;13.37;47.96;95618.53;5001866;28;20087;-63
2021/08/28 07:42:57;;;;;;;5.65;3.85;;;;;;;13.73;47.69;95616.66;5000319;28;20538;-63
2021/08/28 07:45:23;;;;;;;5.47;4.40;;;;;;;13.89;47.17;95610.19;5001411;28;20578;-63
2021/08/28 07:47:48;;;;;;;6.90;5.07;;;;;;;13.78;47.17;95616.09;4993617;28;20136;-63
2021/08/28 07:50:14;;;;;;;7.38;5.75;;;;;;;13.73;47.47;95613.19;5000929;28;20033;-62
2021/08/28 07:52:41;;;;;;;5.72;4.18;;;;;;;13.78;46.58;95618.75;5000413;28;20558;-63
2021/08/28 07:55:07;;;;;;;6.70;4.93;;;;;;;13.74;46.60;95613.00;5000836;28;20455;-63
2021/08/28 07:57:32;;;;;;;5.65;4.38;;;;;;;13.73;46.78;95605.97;5000498;28;20368;-63
2021/08/28 07:59:58;;;;;;;6.10;3.92;;;;;;;14.01;46.86;95606.94;5000407;28;20041;-63
2021/08/28 08:02:23;;;;;;;5.20;4.07;;;;;;;14.31;45.82;95612.00;5000400;28;20059;-63
2021/08/28 08:04:49;;;;;;;4.38;3.65;;;;;;;14.61;44.38;95608.94;5000834;28;20053;-63
2021/08/28 08:07:14;;;;;;;5.40;4.35;;;;;;;14.20;44.85;95614.22;4999129;28;20042;-63
2021/08/28 08:09:40;;;;;;;4.00;3.10;;;;;;;14.74;43.46;95610.84;4999492;28;20049;-63
2021/08/28 08:12:05;;;;;;;4.80;3.80;;;;;;;14.81;43.49;95611.69;5001831;28;20054;-63
2021/08/28 08:14:31;;;;;;;7.03;5.30;;;;;;;14.94;43.83;95615.41;5004072;28;20116;-63
2021/08/28 08:16:56;;;;;;;4.78;3.92;;;;;;;14.90;42.96;95609.63;5003778;28;20029;-64
2021/08/28 08:19:21;;;;;;;3.55;3.17;;;;;;;15.20;43.20;95611.06;5004225;28;20589;-64
2021/08/28 08:21:47;;;;;;;3.90;3.30;;;;;;;15.33;41.85;95603.00;5003267;28;20038;-63
2021/08/28 08:24:12;;;;;;;3.20;2.90;;;;;;;15.43;42.98;95601.75;5004702;28;20034;-64
2021/08/28 08:26:38;;;;;;;3.78;2.80;;;;;;;15.74;41.80;95609.13;5003122;28;20074;-64
2021/08/28 08:29:03;;;;;;;4.38;2.88;;;;;;;16.13;41.43;95616.41;5003701;28;20030;-64
2021/08/28 08:31:29;;;;;;;4.07;3.10;;;;;;;16.24;41.17;95614.91;5002975;28;20048;-64
2021/08/28 08:33:54;;;;;;;3.72;3.30;;;;;;;16.25;41.22;95603.94;5003571;28;20084;-64
2021/08/28 08:36:19;;;;;;;3.67;2.90;;;;;;;16.40;41.76;95613.63;5001013;28;20042;-64
2021/08/28 08:38:45;;;;;;;3.20;2.90;;;;;;;16.57;41.75;95616.63;5003025;28;20132;-64
2021/08/28 08:41:10;;;;;;;4.47;3.30;;;;;;;16.85;41.43;95614.56;5006397;28;20026;-64
2021/08/28 08:43:36;;;;;;;3.92;2.75;;;;;;;17.10;40.39;95616.47;5004198;28;20045;-63
2021/08/28 08:46:01;;;;;;;2.33;2.13;;;;;;;16.71;39.29;95624.59;5006376;28;20049;-64
2021/08/28 08:48:27;;;;;;;2.80;2.60;;;;;;;16.50;38.64;95622.03;5004213;28;20087;-63
2021/08/28 08:50:52;;;;;;;2.75;2.25;;;;;;;16.28;40.37;95628.75;5005449;28;20110;-64
2021/08/28 08:53:20;;;;;;;2.40;2.20;;;;;;;16.63;40.27;95623.00;5004561;28;20042;-64
2021/08/28 08:55:46;;;;;;;2.70;2.38;;;;;;;16.94;40.04;95624.03;5005710;28;20030;-64
2021/08/28 08:58:11;;;;;;;2.65;2.33;;;;;;;17.07;37.78;95627.66;4986240;28;20042;-63
2021/08/28 09:00:37;;;;;;;2.38;2.17;;;;;;;16.92;38.69;95622.59;4988755;28;20029;-64
2021/08/28 09:03:02;;;;;;;3.03;2.33;;;;;;;17.07;39.63;95623.09;5003418;28;20110;-64
2021/08/28 09:05:27;;;;;;;2.78;2.40;;;;;;;16.56;39.20;95624.91;5006120;28;20538;-64
2021/08/28 09:07:53;;;;;;;2.55;2.35;;;;;;;16.31;39.07;95626.44;5007128;28;20086;-65
2021/08/28 09:10:18;;;;;;;2.88;2.20;;;;;;;17.07;37.12;95620.41;5003401;28;20415;-64
2021/08/28 09:12:44;;;;;;;2.20;2.10;;;;;;;16.71;38.04;95625.41;4998610;28;20113;-64
2021/08/28 09:15:12;;;;;;;2.00;1.90;;;;;;;16.66;37.30;95624.44;5002149;28;20103;-63
2021/08/28 09:17:39;;;;;;;2.65;1.90;;;;;;;17.09;37.13;95622.84;5002038;28;20105;-64
2021/08/28 09:20:21;;;;;;;2.45;2.25;;;;;;;16.39;38.76;95630.78;4981763;28;20074;-64
2021/08/28 09:22:47;;;;;;;4.85;2.40;;;;;;;16.90;39.66;95623.63;4994488;28;20192;-64
2021/08/28 09:25:14;;;;;;;3.03;2.55;;;;;;;17.29;39.11;95617.34;5001491;28;20086;-64
2021/08/28 09:27:43;;;;;;;2.60;2.28;;;;;;;17.56;39.00;95618.94;4978315;28;20443;-64
2021/08/28 09:30:18;;;;;;;2.58;2.22;;;;;;;17.73;38.39;95613.78;5002947;28;20113;-64
2021/08/28 09:32:47;;;;;;;2.10;1.92;;;;;;;17.76;37.35;95624.13;5001109;28;20073;-64
2021/08/28 09:35:13;;;;;;;2.10;1.92;;;;;;;17.48;36.75;95628.16;5002856;28;20521;-64
2021/08/28 09:37:38;;;;;;;2.58;2.10;;;;;;;16.59;38.13;95622.59;4997811;28;20105;-64
2021/08/28 09:40:04;;;;;;;4.40;2.38;;;;;;;16.93;38.31;95625.03;5002871;28;20025;-64
2021/08/28 09:42:30;;;;;;;3.03;2.35;;;;;;;17.09;36.93;95617.47;5001366;28;20193;-64
2021/08/28 09:44:55;;;;;;;3.80;2.92;;;;;;;16.57;38.60;95634.59;4984898;28;20398;-64
2021/08/28 09:47:29;;;;;;;3.42;3.10;;;;;;;15.80;40.96;95623.56;5002201;28;20319;-64
2021/08/28 09:49:54;;;;;;;4.32;3.00;;;;;;;16.42;40.43;95624.16;4996530;28;20041;-64
2021/08/28 09:52:25;;;;;;;5.50;3.65;;;;;;;14.76;43.52;95640.13;5001855;28;20487;-64
2021/08/28 09:54:51;;;;;;;5.32;3.45;;;;;;;15.52;42.85;95637.22;4996317;28;20114;-63
2021/08/28 09:57:16;;;;;;;5.40;3.63;;;;;;;15.40;42.35;95637.84;5001903;28;20094;-63
2021/08/28 09:59:42;;;;;;;3.90;3.13;;;;;;;14.97;43.79;95631.91;4994136;28;20575;-64
2021/08/28 10:02:14;;;;;;;5.43;3.50;;;;;;;15.22;43.19;95638.47;4999788;28;20118;-64
2021/08/28 10:04:58;;;;;;;5.03;3.50;;;;;;;15.03;44.09;95646.31;5000328;28;20102;-64
2021/08/28 10:07:27;;;;;;;4.25;3.47;;;;;;;15.10;42.70;95643.66;4998092;28;20106;-64
2021/08/28 10:09:57;;;;;;;5.13;3.10;;;;;;;14.83;43.80;95638.28;5002005;28;20594;-63
2021/08/28 10:12:23;;;;;;;2.85;2.65;;;;;;;15.45;42.54;95631.88;5001516;28;20130;-63
2021/08/28 10:14:49;;;;;;;3.55;2.92;;;;;;;15.95;41.72;95635.91;5002674;28;20430;-64
2021/08/28 10:17:18;;;;;;;3.25;2.90;;;;;;;15.13;43.05;95645.09;4985221;28;20074;-64
2021/08/28 10:19:44;;;;;;;3.47;2.80;;;;;;;15.26;42.73;95638.91;5002425;28;20102;-64
2021/08/28 10:22:12;;;;;;;2.90;2.60;;;;;;;15.45;42.66;95632.69;5001644;28;20117;-63
2021/08/28 10:24:37;;;;;;;3.47;2.88;;;;;;;15.97;41.44;95639.19;5000693;28;20110;-64
2021/08/28 10:27:03;;;;;;;3.20;2.42;;;;;;;16.20;41.21;95636.00;4984084;28;20369;-64
2021/08/28 10:29:28;;;;;;;5.28;3.00;;;;;;;16.20;41.56;95638.69;5002298;28;20110;-64
2021/08/28 10:31:53;;;;;;;3.92;3.05;;;;;;;16.10;41.04;95641.84;5000546;28;20090;-64
2021/08/28 10:34:20;;;;;;;3.45;2.58;;;;;;;15.86;42.66;95638.81;5001279;28;20113;-64
2021/08/28 10:36:45;;;;;;;3.92;2.70;;;;;;;14.88;45.06;95657.25;5000991;28;20082;-64
2021/08/28 10:39:11;;;;;;;2.80;2.60;;;;;;;14.97;44.20;95653.34;4984720;28;20110;-64
2021/08/28 10:41:36;;;;;;;2.80;2.30;;;;;;;15.51;43.74;95655.19;5000983;28;20555;-64
2021/08/28 10:44:02;;;;;;;3.70;2.92;;;;;;;15.86;41.79;95656.78;5002413;28;20567;-64
2021/08/28 10:46:31;;;;;;;4.18;2.90;;;;;;;15.00;43.89;95662.00;5000047;28;20106;-64
2021/08/28 10:48:58;;;;;;;4.05;2.85;;;;;;;14.84;44.97;95653.31;5000888;28;20090;-64
2021/08/28 10:51:24;;;;;;;4.00;2.90;;;;;;;15.66;42.22;95649.59;5001353;28;20205;-64
2021/08/28 10:53:54;;;;;;;4.68;2.90;;;;;;;15.72;42.23;95647.94;5001593;28;20099;-63
2021/08/28 10:56:20;;;;;;;3.10;2.65;;;;;;;15.46;43.41;95639.72;5001965;28;20181;-64
2021/08/28 10:58:45;;;;;;;3.03;2.72;;;;;;;15.68;42.91;95650.22;5001491;28;20125;-64
2021/08/28 11:01:10;;;;;;;2.80;2.30;;;;;;;15.18;43.83;95653.34;5002051;28;20086;-64
2021/08/28 11:03:36;;;;;;;3.38;2.63;;;;;;;15.35;43.78;95649.22;4994565;28;20102;-64
2021/08/28 11:06:16;;;;;;;3.45;2.60;;;;;;;15.61;43.52;95650.22;4999845;28;20689;-64
2021/08/28 11:08:59;;;;;;;5.32;2.80;;;;;;;15.36;43.30;95655.38;5001751;28;20108;-64
2021/08/28 11:11:35;;;;;;;4.13;2.80;;;;;;;14.81;45.74;95656.41;5000724;28;20591;-64
2021/08/28 11:14:06;;;;;;;3.20;2.85;;;;;;;15.05;45.52;95659.53;5001483;28;20575;-64
2021/08/28 11:16:43;;;;;;;3.35;3.03;;;;;;;15.27;44.21;95656.66;5001972;28;20500;-64
2021/08/28 11:19:24;;;;;;;3.40;2.90;;;;;;;15.29;43.78;95659.94;5001422;28;20118;-64
2021/08/28 11:21:50;;;;;;;3.15;2.83;;;;;;;;;;5000935;28;20717;-64
2021/08/28 11:24:17;;;;;;;3.25;2.63;;;;;;;14.41;45.91;95668.66;5000631;28;20188;-64
2021/08/28 11:26:43;;;;;;;3.10;2.80;;;;;;;14.65;45.78;95669.13;5000651;28;20452;-65
2021/08/28 11:29:42;;;;;;;3.33;2.58;;;;;;;14.79;46.13;95671.88;5001748;28;20045;-65
2021/08/28 11:32:17;;;;;;;2.80;2.60;;;;;;;14.93;45.81;95678.09;5000039;28;20754;-65
2021/08/28 11:34:50;;;;;;;3.42;2.33;;;;;;;15.13;45.08;95672.72;4996669;28;20380;-64
2021/08/28 11:37:31;;;;;;;3.67;3.00;;;;;;;15.03;45.51;95680.38;5000316;28;20041;-64